PWSweather.com
Personal Weather Stations
Station Observations
COONRAPIDS
Minneapolis, MN 55433

Minneapolis, MN 55433

Lat: 45.187721, Lon: -93.36828

Elevation: 898

Station Type: Davis Vantage Pro 2

High Low Average
Temperature 42.0°F5.6°C 22.0°F-5.6°C 29.5°F-1.4°C
Dew Point 25.5°F-3.6°C 15.3°F-9.3°C 20.7°F-6.3°C
Winds 3.5 mph 5.6 kmh Calm Calm Calm SWCalm SW
Wind Gusts 10.4 mph16.7 kmh -- 1.0 mph1.6 kmh
Humidity 87% 50% 71%
Pressure 30.07 in1018.3 mb 29.74 in1007.1 mb -
Precipitation 0.09 in2.3 mm - -
Hour Temp Dew Point Humidity Winds Wind Gusts Pressure Precip Precip Rate Daily Precip Total
12:00 AM 25.1°F-3.8°C 16.4°F-8.7°C 69% 1.2 mph SW1.9 kmh SW 2.3 mph3.7 kmh 30.07 in1018.3 mb - 0.00 in0.0 mm 0.00 in0.0 mm
12:10 AM 25.3°F-3.7°C 16.5°F-8.6°C 69% 1.2 mph SW1.9 kmh SW 3.5 mph5.6 kmh 30.08 in1018.6 mb - 0.00 in0.0 mm 0.00 in0.0 mm
12:20 AM 25.1°F-3.8°C 16.4°F-8.7°C 69% 2.3 mph WSW3.7 kmh WSW 3.5 mph5.6 kmh 30.07 in1018.3 mb - 0.00 in0.0 mm 0.00 in0.0 mm
12:30 AM 25.0°F-3.9°C 16.6°F-8.6°C 70% Calm Calm 5.8 mph9.3 kmh 30.07 in1018.3 mb - 0.00 in0.0 mm 0.00 in0.0 mm
12:50 AM 24.9°F-3.9°C 16.5°F-8.6°C 70% Calm Calm -- 30.07 in1018.3 mb - 0.00 in0.0 mm 0.00 in0.0 mm
01:00 AM 24.8°F-4.0°C 16.4°F-8.7°C 70% 2.3 mph WSW3.7 kmh WSW 4.6 mph7.4 kmh 30.07 in1018.3 mb - 0.00 in0.0 mm 0.00 in0.0 mm
01:10 AM 24.7°F-4.1°C 16.6°F-8.6°C 71% Calm Calm -- 30.06 in1017.9 mb - 0.00 in0.0 mm 0.00 in0.0 mm
01:20 AM 24.4°F-4.2°C 16.4°F-8.7°C 71% Calm Calm 1.2 mph1.9 kmh 30.07 in1018.3 mb - 0.00 in0.0 mm 0.00 in0.0 mm
01:30 AM 24.3°F-4.3°C 16.2°F-8.8°C 71% 1.2 mph WSW1.9 kmh WSW 3.5 mph5.6 kmh 30.06 in1017.9 mb - 0.00 in0.0 mm 0.00 in0.0 mm
01:40 AM 23.9°F-4.5°C 15.9°F-8.9°C 71% Calm Calm -- 30.06 in1017.9 mb - 0.00 in0.0 mm 0.00 in0.0 mm
01:50 AM 23.7°F-4.6°C 16.0°F-8.9°C 72% 1.2 mph WSW1.9 kmh WSW 5.8 mph9.3 kmh 30.06 in1017.9 mb - 0.00 in0.0 mm 0.00 in0.0 mm
02:00 AM 23.6°F-4.7°C 15.9°F-8.9°C 72% Calm Calm 3.5 mph5.6 kmh 30.05 in1017.6 mb - 0.00 in0.0 mm 0.00 in0.0 mm
02:10 AM 23.4°F-4.8°C 16.0°F-8.9°C 73% Calm Calm 2.3 mph3.7 kmh 30.05 in1017.6 mb - 0.00 in0.0 mm 0.00 in0.0 mm
02:20 AM 23.0°F-5.0°C 15.6°F-9.1°C 73% Calm Calm -- 30.05 in1017.6 mb - 0.00 in0.0 mm 0.00 in0.0 mm
02:30 AM 22.7°F-5.2°C 15.7°F-9.1°C 74% Calm Calm -- 30.05 in1017.6 mb - 0.00 in0.0 mm 0.00 in0.0 mm
02:40 AM 22.8°F-5.1°C 15.7°F-9.1°C 74% 1.2 mph SW1.9 kmh SW 1.2 mph1.9 kmh 30.04 in1017.3 mb - 0.00 in0.0 mm 0.00 in0.0 mm
02:50 AM 22.3°F-5.4°C 15.3°F-9.3°C 74% Calm Calm -- 30.04 in1017.3 mb - 0.00 in0.0 mm 0.00 in0.0 mm
03:00 AM 22.1°F-5.5°C 15.4°F-9.2°C 75% Calm Calm -- 30.04 in1017.3 mb - 0.00 in0.0 mm 0.00 in0.0 mm
03:10 AM 22.0°F-5.6°C 15.3°F-9.3°C 75% Calm Calm -- 30.03 in1016.9 mb - 0.00 in0.0 mm 0.00 in0.0 mm
03:20 AM 22.0°F-5.6°C 15.6°F-9.1°C 76% Calm Calm -- 30.03 in1016.9 mb - 0.00 in0.0 mm 0.00 in0.0 mm
03:30 AM 22.1°F-5.5°C 15.7°F-9.1°C 76% Calm Calm -- 30.03 in1016.9 mb - 0.00 in0.0 mm 0.00 in0.0 mm
03:40 AM 22.0°F-5.6°C 15.6°F-9.1°C 76% Calm Calm -- 30.02 in1016.6 mb - 0.00 in0.0 mm 0.00 in0.0 mm
03:50 AM 22.2°F-5.4°C 16.1°F-8.8°C 77% Calm Calm -- 30.02 in1016.6 mb - 0.00 in0.0 mm 0.00 in0.0 mm
04:00 AM 22.4°F-5.3°C 16.3°F-8.7°C 77% Calm Calm -- 30.02 in1016.6 mb - 0.00 in0.0 mm 0.00 in0.0 mm
04:10 AM 22.7°F-5.2°C 16.6°F-8.6°C 77% Calm Calm -- 30.01 in1016.3 mb - 0.00 in0.0 mm 0.00 in0.0 mm
04:20 AM 22.9°F-5.1°C 16.8°F-8.4°C 77% Calm Calm -- 30.00 in1015.9 mb - 0.00 in0.0 mm 0.00 in0.0 mm
04:30 AM 23.1°F-4.9°C 17.0°F-8.3°C 77% 1.2 mph S1.9 kmh S 3.5 mph5.6 kmh 30.00 in1015.9 mb - 0.00 in0.0 mm 0.00 in0.0 mm
04:40 AM 23.7°F-4.6°C 17.2°F-8.2°C 76% Calm Calm -- 29.99 in1015.6 mb - 0.00 in0.0 mm 0.00 in0.0 mm
04:50 AM 23.7°F-4.6°C 17.2°F-8.2°C 76% Calm Calm -- 29.98 in1015.2 mb - 0.00 in0.0 mm 0.00 in0.0 mm
05:00 AM 24.0°F-4.4°C 17.5°F-8.1°C 76% 1.2 mph S1.9 kmh S 3.5 mph5.6 kmh 29.97 in1014.9 mb - 0.00 in0.0 mm 0.00 in0.0 mm
05:10 AM 24.3°F-4.3°C 17.8°F-7.9°C 76% Calm Calm 3.5 mph5.6 kmh 29.96 in1014.6 mb - 0.00 in0.0 mm 0.00 in0.0 mm
05:20 AM 24.5°F-4.2°C 17.7°F-7.9°C 75% 2.3 mph S3.7 kmh S 3.5 mph5.6 kmh 29.95 in1014.2 mb - 0.00 in0.0 mm 0.00 in0.0 mm
05:30 AM 24.5°F-4.2°C 17.7°F-7.9°C 75% 1.2 mph S1.9 kmh S 3.5 mph5.6 kmh 29.94 in1013.9 mb - 0.00 in0.0 mm 0.00 in0.0 mm
05:40 AM 24.5°F-4.2°C 17.7°F-7.9°C 75% 3.5 mph S5.6 kmh S 5.8 mph9.3 kmh 29.93 in1013.5 mb - 0.00 in0.0 mm 0.00 in0.0 mm
05:50 AM 24.1°F-4.4°C 17.3°F-8.2°C 75% Calm Calm 4.6 mph7.4 kmh 29.92 in1013.2 mb - 0.00 in0.0 mm 0.00 in0.0 mm
06:00 AM 23.9°F-4.5°C 17.1°F-8.3°C 75% 1.2 mph S1.9 kmh S 4.6 mph7.4 kmh 29.92 in1013.2 mb - 0.00 in0.0 mm 0.00 in0.0 mm
06:10 AM 23.8°F-4.6°C 17.0°F-8.3°C 75% 2.3 mph S3.7 kmh S 5.8 mph9.3 kmh 29.92 in1013.2 mb - 0.00 in0.0 mm 0.00 in0.0 mm
06:20 AM 23.6°F-4.7°C 16.8°F-8.4°C 75% Calm Calm -- 29.92 in1013.2 mb - 0.00 in0.0 mm 0.00 in0.0 mm
06:30 AM 23.4°F-4.8°C 16.9°F-8.4°C 76% Calm Calm -- 29.92 in1013.2 mb - 0.00 in0.0 mm 0.00 in0.0 mm
06:40 AM 23.3°F-4.8°C 16.9°F-8.4°C 76% Calm Calm -- 29.92 in1013.2 mb - 0.00 in0.0 mm 0.00 in0.0 mm
06:50 AM 23.3°F-4.8°C 17.2°F-8.2°C 77% Calm Calm -- 29.93 in1013.5 mb - 0.00 in0.0 mm 0.00 in0.0 mm
07:00 AM 23.3°F-4.8°C 17.2°F-8.2°C 77% Calm Calm -- 29.93 in1013.5 mb - 0.00 in0.0 mm 0.00 in0.0 mm
07:10 AM 23.4°F-4.8°C 17.3°F-8.2°C 77% Calm Calm -- 29.93 in1013.5 mb - 0.00 in0.0 mm 0.00 in0.0 mm
07:20 AM 23.0°F-5.0°C 16.5°F-8.6°C 76% Calm Calm -- 29.94 in1013.9 mb - 0.00 in0.0 mm 0.00 in0.0 mm
07:30 AM 22.3°F-5.4°C 16.2°F-8.8°C 77% Calm Calm -- 29.93 in1013.5 mb - 0.00 in0.0 mm 0.00 in0.0 mm
07:40 AM 22.0°F-5.6°C 16.2°F-8.8°C 78% Calm Calm -- 29.93 in1013.5 mb - 0.00 in0.0 mm 0.00 in0.0 mm
07:50 AM 22.1°F-5.5°C 16.2°F-8.8°C 78% Calm Calm -- 29.92 in1013.2 mb - 0.00 in0.0 mm 0.00 in0.0 mm
08:00 AM 22.8°F-5.1°C 17.0°F-8.3°C 78% Calm Calm -- 29.91 in1012.9 mb - 0.00 in0.0 mm 0.00 in0.0 mm
08:10 AM 22.7°F-5.2°C 16.9°F-8.4°C 78% Calm Calm -- 29.91 in1012.9 mb - 0.00 in0.0 mm 0.00 in0.0 mm
08:20 AM 22.8°F-5.1°C 16.9°F-8.4°C 78% 2.3 mph S3.7 kmh S 3.5 mph5.6 kmh 29.90 in1012.5 mb - 0.00 in0.0 mm 0.00 in0.0 mm
08:30 AM 22.6°F-5.2°C 16.8°F-8.4°C 78% Calm Calm -- 29.90 in1012.5 mb - 0.00 in0.0 mm 0.00 in0.0 mm
08:40 AM 22.1°F-5.5°C 16.3°F-8.7°C 78% 1.2 mph S1.9 kmh S 3.5 mph5.6 kmh 29.90 in1012.5 mb - 0.00 in0.0 mm 0.00 in0.0 mm
08:50 AM 22.7°F-5.2°C 16.8°F-8.4°C 78% 2.3 mph S3.7 kmh S 4.6 mph7.4 kmh 29.90 in1012.5 mb - 0.00 in0.0 mm 0.00 in0.0 mm
09:00 AM 23.1°F-4.9°C 17.3°F-8.2°C 78% 2.3 mph S3.7 kmh S 3.5 mph5.6 kmh 29.89 in1012.2 mb - 0.00 in0.0 mm 0.00 in0.0 mm
09:10 AM 22.9°F-5.1°C 16.8°F-8.4°C 77% Calm Calm 4.6 mph7.4 kmh 29.89 in1012.2 mb - 0.00 in0.0 mm 0.00 in0.0 mm
09:20 AM 23.2°F-4.9°C 17.1°F-8.3°C 77% Calm Calm 5.8 mph9.3 kmh 29.89 in1012.2 mb - 0.00 in0.0 mm 0.00 in0.0 mm
09:30 AM 23.5°F-4.7°C 17.3°F-8.2°C 77% Calm Calm -- 29.89 in1012.2 mb - 0.00 in0.0 mm 0.00 in0.0 mm
09:40 AM 23.6°F-4.7°C 17.4°F-8.1°C 77% Calm Calm -- 29.89 in1012.2 mb - 0.00 in0.0 mm 0.00 in0.0 mm
09:50 AM 24.5°F-4.2°C 18.1°F-7.7°C 76% Calm Calm -- 29.89 in1012.2 mb - 0.00 in0.0 mm 0.00 in0.0 mm
10:00 AM 25.9°F-3.4°C 18.8°F-7.3°C 74% Calm Calm -- 29.89 in1012.2 mb - 0.00 in0.0 mm 0.00 in0.0 mm
10:10 AM 27.0°F-2.8°C 19.2°F-7.1°C 72% Calm Calm -- 29.89 in1012.2 mb - 0.00 in0.0 mm 0.00 in0.0 mm
10:20 AM 28.1°F-2.2°C 19.6°F-6.9°C 70% 1.2 mph WSW1.9 kmh WSW 3.5 mph5.6 kmh 29.90 in1012.5 mb - 0.00 in0.0 mm 0.00 in0.0 mm
10:30 AM 28.7°F-1.8°C 19.5°F-6.9°C 68% 2.3 mph SW3.7 kmh SW 6.9 mph11.1 kmh 29.89 in1012.2 mb - 0.00 in0.0 mm 0.00 in0.0 mm
10:40 AM 29.4°F-1.4°C 19.8°F-6.8°C 67% 1.2 mph SW1.9 kmh SW 10.4 mph16.7 kmh 29.90 in1012.5 mb - 0.00 in0.0 mm 0.00 in0.0 mm
10:50 AM 29.9°F-1.2°C 19.9°F-6.7°C 66% 1.2 mph SW1.9 kmh SW 3.5 mph5.6 kmh 29.91 in1012.9 mb - 0.00 in0.0 mm 0.00 in0.0 mm
11:00 AM 30.3°F-0.9°C 20.3°F-6.5°C 66% 1.2 mph SW1.9 kmh SW 5.8 mph9.3 kmh 29.91 in1012.9 mb - 0.00 in0.0 mm 0.00 in0.0 mm
11:10 AM 31.0°F-0.6°C 20.6°F-6.3°C 65% Calm Calm 1.2 mph1.9 kmh 29.90 in1012.5 mb - 0.00 in0.0 mm 0.00 in0.0 mm
11:20 AM 31.9°F-0.1°C 20.7°F-6.3°C 63% Calm Calm 2.3 mph3.7 kmh 29.90 in1012.5 mb - 0.00 in0.0 mm 0.00 in0.0 mm
11:30 AM 32.8°F0.4°C 21.2°F-6.0°C 62% 2.3 mph SW3.7 kmh SW 5.8 mph9.3 kmh 29.90 in1012.5 mb - 0.00 in0.0 mm 0.00 in0.0 mm
11:40 AM 33.7°F0.9°C 21.3°F-5.9°C 60% 2.3 mph SW3.7 kmh SW 3.5 mph5.6 kmh 29.90 in1012.5 mb - 0.00 in0.0 mm 0.00 in0.0 mm
11:50 AM 34.6°F1.4°C 21.7°F-5.7°C 59% 1.2 mph SW1.9 kmh SW 2.3 mph3.7 kmh 29.90 in1012.5 mb - 0.00 in0.0 mm 0.00 in0.0 mm
12:00 PM 35.5°F1.9°C 22.2°F-5.4°C 58% 2.3 mph WSW3.7 kmh WSW 5.8 mph9.3 kmh 29.90 in1012.5 mb - 0.00 in0.0 mm 0.00 in0.0 mm
12:10 PM 36.2°F2.3°C 22.0°F-5.6°C 56% Calm Calm 3.5 mph5.6 kmh 29.89 in1012.2 mb - 0.00 in0.0 mm 0.00 in0.0 mm
12:20 PM 36.8°F2.7°C 22.6°F-5.2°C 56% Calm Calm -- 29.88 in1011.9 mb - 0.01 in0.3 mm 0.01 in0.3 mm
12:30 PM 37.3°F2.9°C 22.6°F-5.2°C 55% 2.3 mph WSW3.7 kmh WSW 5.8 mph9.3 kmh 29.88 in1011.9 mb - 0.00 in0.0 mm 0.01 in0.3 mm
12:40 PM 38.0°F3.3°C 22.8°F-5.1°C 54% 1.2 mph SW1.9 kmh SW 3.5 mph5.6 kmh 29.87 in1011.5 mb - 0.00 in0.0 mm 0.01 in0.3 mm
12:50 PM 38.8°F3.8°C 23.1°F-4.9°C 53% Calm Calm 3.5 mph5.6 kmh 29.87 in1011.5 mb - 0.00 in0.0 mm 0.01 in0.3 mm
01:00 PM 38.9°F3.8°C 23.2°F-4.9°C 53% 1.2 mph WSW1.9 kmh WSW -- 29.86 in1011.2 mb - 0.01 in0.3 mm 0.02 in0.5 mm
01:10 PM 39.8°F4.3°C 23.6°F-4.7°C 52% Calm Calm 5.8 mph9.3 kmh 29.86 in1011.2 mb - 0.01 in0.3 mm 0.03 in0.8 mm
01:20 PM 39.8°F4.3°C 23.6°F-4.7°C 52% 2.3 mph WSW3.7 kmh WSW 6.9 mph11.1 kmh 29.85 in1010.8 mb - 0.00 in0.0 mm 0.03 in0.8 mm
01:30 PM 40.3°F4.6°C 24.1°F-4.4°C 52% 2.3 mph SW3.7 kmh SW 3.5 mph5.6 kmh 29.84 in1010.5 mb - 0.01 in0.3 mm 0.04 in1.0 mm
01:40 PM 40.1°F4.5°C 23.4°F-4.8°C 51% 1.2 mph WSW1.9 kmh WSW -- 29.84 in1010.5 mb - 0.00 in0.0 mm 0.04 in1.0 mm
01:50 PM 40.2°F4.6°C 23.5°F-4.7°C 51% Calm Calm -- 29.84 in1010.5 mb - 0.00 in0.0 mm 0.04 in1.0 mm
02:00 PM 40.4°F4.7°C 23.7°F-4.6°C 51% 2.3 mph W3.7 kmh W 6.9 mph11.1 kmh 29.84 in1010.5 mb - 0.01 in0.3 mm 0.05 in1.3 mm
02:10 PM 40.9°F4.9°C 24.6°F-4.1°C 52% Calm Calm -- 29.84 in1010.5 mb - 0.00 in0.0 mm 0.05 in1.3 mm
02:20 PM 41.1°F5.1°C 24.4°F-4.2°C 51% 1.2 mph WSW1.9 kmh WSW 3.5 mph5.6 kmh 29.83 in1010.2 mb - 0.00 in0.0 mm 0.05 in1.3 mm
02:30 PM 41.4°F5.2°C 24.6°F-4.1°C 51% 2.3 mph WSW3.7 kmh WSW 4.6 mph7.4 kmh 29.82 in1009.8 mb - 0.01 in0.3 mm 0.06 in1.5 mm
02:40 PM 41.5°F5.3°C 24.2°F-4.3°C 50% 1.2 mph WSW1.9 kmh WSW 3.5 mph5.6 kmh 29.82 in1009.8 mb - 0.00 in0.0 mm 0.06 in1.5 mm
02:50 PM 41.8°F5.4°C 24.5°F-4.2°C 50% Calm Calm -- 29.82 in1009.8 mb - 0.00 in0.0 mm 0.06 in1.5 mm
03:00 PM 41.8°F5.4°C 24.5°F-4.2°C 50% 3.5 mph WSW5.6 kmh WSW 5.8 mph9.3 kmh 29.81 in1009.5 mb - 0.00 in0.0 mm 0.06 in1.5 mm
03:10 PM 41.8°F5.4°C 24.5°F-4.2°C 50% Calm Calm -- 29.81 in1009.5 mb - 0.00 in0.0 mm 0.06 in1.5 mm
03:20 PM 41.8°F5.4°C 24.5°F-4.2°C 50% 3.5 mph SW5.6 kmh SW 3.5 mph5.6 kmh 29.82 in1009.8 mb - 0.01 in0.3 mm 0.07 in1.8 mm
03:30 PM 41.7°F5.4°C 24.5°F-4.2°C 50% 1.2 mph SW1.9 kmh SW 3.5 mph5.6 kmh 29.81 in1009.5 mb - 0.00 in0.0 mm 0.07 in1.8 mm
03:40 PM 41.7°F5.4°C 24.9°F-3.9°C 51% Calm Calm -- 29.81 in1009.5 mb - 0.00 in0.0 mm 0.07 in1.8 mm
03:50 PM 41.7°F5.4°C 24.9°F-3.9°C 51% Calm Calm 1.2 mph1.9 kmh 29.81 in1009.5 mb - 0.01 in0.3 mm 0.08 in2.0 mm
04:00 PM 42.0°F5.6°C 25.2°F-3.8°C 51% Calm Calm -- 29.81 in1009.5 mb - 0.00 in0.0 mm 0.08 in2.0 mm
04:10 PM 41.7°F5.4°C 24.9°F-3.9°C 51% Calm Calm -- 29.80 in1009.1 mb - 0.00 in0.0 mm 0.08 in2.0 mm
04:20 PM 41.2°F5.1°C 24.9°F-3.9°C 52% Calm Calm -- 29.81 in1009.5 mb - 0.00 in0.0 mm 0.08 in2.0 mm
04:30 PM 40.9°F4.9°C 25.5°F-3.6°C 54% Calm Calm -- 29.81 in1009.5 mb - 0.01 in0.3 mm 0.09 in2.3 mm
04:40 PM 40.7°F4.8°C 24.9°F-3.9°C 53% Calm Calm -- 29.81 in1009.5 mb - 0.00 in0.0 mm 0.09 in2.3 mm
04:50 PM 40.1°F4.5°C 25.2°F-3.8°C 55% Calm Calm -- 29.80 in1009.1 mb - 0.00 in0.0 mm 0.09 in2.3 mm
05:00 PM 39.8°F4.3°C 24.9°F-3.9°C 55% Calm Calm -- 29.80 in1009.1 mb - 0.00 in0.0 mm 0.09 in2.3 mm
05:10 PM 39.4°F4.1°C 25.0°F-3.9°C 56% Calm Calm -- 29.80 in1009.1 mb - 0.00 in0.0 mm 0.09 in2.3 mm
05:20 PM 39.0°F3.9°C 25.0°F-3.9°C 57% Calm Calm -- 29.81 in1009.5 mb - 0.00 in0.0 mm 0.09 in2.3 mm
05:30 PM 38.4°F3.6°C 25.4°F-3.7°C 59% Calm Calm -- 29.81 in1009.5 mb - 0.00 in0.0 mm 0.09 in2.3 mm
05:40 PM 37.7°F3.2°C 25.1°F-3.8°C 60% Calm Calm -- 29.81 in1009.5 mb - 0.00 in0.0 mm 0.09 in2.3 mm
05:50 PM 37.2°F2.9°C 25.3°F-3.7°C 62% Calm Calm -- 29.81 in1009.5 mb - 0.00 in0.0 mm 0.09 in2.3 mm
06:00 PM 36.5°F2.5°C 25.1°F-3.8°C 63% Calm Calm -- 29.81 in1009.5 mb - 0.00 in0.0 mm 0.09 in2.3 mm
06:10 PM 35.7°F2.1°C 24.7°F-4.1°C 64% Calm Calm -- 29.81 in1009.5 mb - 0.00 in0.0 mm 0.09 in2.3 mm
06:20 PM 34.5°F1.4°C 24.3°F-4.3°C 66% Calm Calm -- 29.80 in1009.1 mb - 0.00 in0.0 mm 0.09 in2.3 mm
06:30 PM 33.3°F0.7°C 24.2°F-4.3°C 69% Calm Calm -- 29.80 in1009.1 mb - 0.00 in0.0 mm 0.09 in2.3 mm
06:40 PM 32.8°F0.4°C 24.4°F-4.2°C 71% Calm Calm -- 29.80 in1009.1 mb - 0.00 in0.0 mm 0.09 in2.3 mm
06:50 PM 32.0°F0.0°C 24.0°F-4.4°C 72% Calm Calm -- 29.80 in1009.1 mb - 0.00 in0.0 mm 0.09 in2.3 mm
07:00 PM 31.3°F-0.4°C 23.7°F-4.6°C 73% Calm Calm -- 29.80 in1009.1 mb - 0.00 in0.0 mm 0.09 in2.3 mm
07:10 PM 30.6°F-0.8°C 23.3°F-4.8°C 74% Calm Calm -- 29.80 in1009.1 mb - 0.00 in0.0 mm 0.09 in2.3 mm
07:20 PM 29.8°F-1.2°C 22.9°F-5.1°C 75% Calm Calm -- 29.80 in1009.1 mb - 0.00 in0.0 mm 0.09 in2.3 mm
07:30 PM 29.0°F-1.7°C 22.4°F-5.3°C 76% Calm Calm -- 29.80 in1009.1 mb - 0.00 in0.0 mm 0.09 in2.3 mm
07:40 PM 28.5°F-1.9°C 22.2°F-5.4°C 77% Calm Calm -- 29.80 in1009.1 mb - 0.00 in0.0 mm 0.09 in2.3 mm
07:50 PM 28.0°F-2.2°C 22.0°F-5.6°C 78% Calm Calm -- 29.80 in1009.1 mb - 0.00 in0.0 mm 0.09 in2.3 mm
08:00 PM 27.7°F-2.4°C 22.4°F-5.3°C 80% Calm Calm -- 29.79 in1008.8 mb - 0.00 in0.0 mm 0.09 in2.3 mm
08:10 PM 27.4°F-2.6°C 22.0°F-5.6°C 80% Calm Calm -- 29.79 in1008.8 mb - 0.00 in0.0 mm 0.09 in2.3 mm
08:20 PM 27.1°F-2.7°C 22.0°F-5.6°C 81% Calm Calm -- 29.79 in1008.8 mb - 0.00 in0.0 mm 0.09 in2.3 mm
08:30 PM 27.9°F-2.3°C 23.1°F-4.9°C 82% Calm Calm -- 29.79 in1008.8 mb - 0.00 in0.0 mm 0.09 in2.3 mm
08:40 PM 28.1°F-2.2°C 23.3°F-4.8°C 82% Calm Calm -- 29.78 in1008.5 mb - 0.00 in0.0 mm 0.09 in2.3 mm
08:50 PM 28.2°F-2.1°C 23.4°F-4.8°C 82% Calm Calm -- 29.77 in1008.1 mb - 0.00 in0.0 mm 0.09 in2.3 mm
09:00 PM 28.8°F-1.8°C 24.0°F-4.4°C 82% Calm Calm -- 29.78 in1008.5 mb - 0.00 in0.0 mm 0.09 in2.3 mm
09:10 PM 28.8°F-1.8°C 24.0°F-4.4°C 82% Calm Calm -- 29.77 in1008.1 mb - 0.00 in0.0 mm 0.09 in2.3 mm
09:20 PM 28.5°F-1.9°C 23.7°F-4.6°C 82% Calm Calm -- 29.77 in1008.1 mb - 0.00 in0.0 mm 0.09 in2.3 mm
09:30 PM 28.6°F-1.9°C 23.8°F-4.6°C 82% Calm Calm -- 29.77 in1008.1 mb - 0.00 in0.0 mm 0.09 in2.3 mm
09:40 PM 28.5°F-1.9°C 23.7°F-4.6°C 82% Calm Calm -- 29.77 in1008.1 mb - 0.00 in0.0 mm 0.09 in2.3 mm
09:50 PM 28.3°F-2.1°C 23.5°F-4.7°C 82% Calm Calm -- 29.77 in1008.1 mb - 0.00 in0.0 mm 0.09 in2.3 mm
10:00 PM 27.8°F-2.3°C 23.0°F-5.0°C 82% Calm Calm -- 29.77 in1008.1 mb - 0.00 in0.0 mm 0.09 in2.3 mm
10:10 PM 27.4°F-2.6°C 22.9°F-5.1°C 83% Calm Calm -- 29.77 in1008.1 mb - 0.00 in0.0 mm 0.09 in2.3 mm
10:20 PM 27.4°F-2.6°C 23.2°F-4.9°C 84% Calm Calm -- 29.77 in1008.1 mb - 0.00 in0.0 mm 0.09 in2.3 mm
10:30 PM 27.0°F-2.8°C 22.8°F-5.1°C 84% Calm Calm -- 29.77 in1008.1 mb - 0.00 in0.0 mm 0.09 in2.3 mm
10:40 PM 26.5°F-3.1°C 22.4°F-5.3°C 84% Calm Calm -- 29.77 in1008.1 mb - 0.00 in0.0 mm 0.09 in2.3 mm
10:50 PM 26.2°F-3.2°C 22.0°F-5.6°C 84% Calm Calm -- 29.77 in1008.1 mb - 0.00 in0.0 mm 0.09 in2.3 mm
11:00 PM 25.8°F-3.4°C 21.6°F-5.8°C 84% Calm Calm -- 29.76 in1007.8 mb - 0.00 in0.0 mm 0.09 in2.3 mm
11:10 PM 25.4°F-3.7°C 21.2°F-6.0°C 84% Calm Calm -- 29.76 in1007.8 mb - 0.00 in0.0 mm 0.09 in2.3 mm
11:20 PM 26.2°F-3.2°C 22.6°F-5.2°C 86% Calm Calm -- 29.75 in1007.5 mb - 0.00 in0.0 mm 0.09 in2.3 mm
11:30 PM 27.3°F-2.6°C 23.7°F-4.6°C 86% Calm Calm -- 29.75 in1007.5 mb - 0.00 in0.0 mm 0.09 in2.3 mm
11:40 PM 27.3°F-2.6°C 23.6°F-4.7°C 86% Calm Calm -- 29.76 in1007.8 mb - 0.00 in0.0 mm 0.09 in2.3 mm
11:50 PM 27.0°F-2.8°C 23.4°F-4.8°C 86% Calm Calm -- 29.76 in1007.8 mb - 0.00 in0.0 mm 0.09 in2.3 mm